sensor_id;sensor_type;location;lat;lon;timestamp;P1;durP1;ratioP1;P2;durP2;ratioP2
44664;SDS011;30382;48.802;9.388;2022-11-20T00:01:48;10.40;;;6.33;;
44664;SDS011;30382;48.802;9.388;2022-11-20T00:04:32;10.10;;;7.80;;
44664;SDS011;30382;48.802;9.388;2022-11-20T00:07:17;9.43;;;6.33;;
44664;SDS011;30382;48.802;9.388;2022-11-20T00:10:01;11.43;;;7.50;;
44664;SDS011;30382;48.802;9.388;2022-11-20T00:12:45;9.47;;;7.43;;
44664;SDS011;30382;48.802;9.388;2022-11-20T00:15:30;13.17;;;7.83;;
44664;SDS011;30382;48.802;9.388;2022-11-20T00:18:14;11.03;;;7.37;;
44664;SDS011;30382;48.802;9.388;2022-11-20T00:21:02;10.40;;;7.33;;
44664;SDS011;30382;48.802;9.388;2022-11-20T00:23:47;8.50;;;6.83;;
44664;SDS011;30382;48.802;9.388;2022-11-20T00:26:32;8.40;;;7.53;;
44664;SDS011;30382;48.802;9.388;2022-11-20T00:29:16;10.80;;;8.20;;
44664;SDS011;30382;48.802;9.388;2022-11-20T00:32:01;11.27;;;7.37;;
44664;SDS011;30382;48.802;9.388;2022-11-20T00:34:45;11.17;;;8.20;;
44664;SDS011;30382;48.802;9.388;2022-11-20T00:37:29;11.03;;;8.00;;
44664;SDS011;30382;48.802;9.388;2022-11-20T00:40:13;10.60;;;7.67;;
44664;SDS011;30382;48.802;9.388;2022-11-20T00:42:58;13.13;;;9.40;;
44664;SDS011;30382;48.802;9.388;2022-11-20T00:45:42;10.87;;;7.67;;
44664;SDS011;30382;48.802;9.388;2022-11-20T00:48:26;13.03;;;9.23;;
44664;SDS011;30382;48.802;9.388;2022-11-20T00:51:12;11.63;;;9.00;;
44664;SDS011;30382;48.802;9.388;2022-11-20T00:53:57;8.97;;;7.70;;
44664;SDS011;30382;48.802;9.388;2022-11-20T00:56:42;10.27;;;7.83;;
44664;SDS011;30382;48.802;9.388;2022-11-20T00:59:26;11.93;;;8.13;;
44664;SDS011;30382;48.802;9.388;2022-11-20T01:02:11;11.07;;;7.80;;
44664;SDS011;30382;48.802;9.388;2022-11-20T01:04:55;10.77;;;8.57;;
44664;SDS011;30382;48.802;9.388;2022-11-20T01:07:39;8.77;;;7.77;;
44664;SDS011;30382;48.802;9.388;2022-11-20T01:10:24;10.30;;;7.10;;
44664;SDS011;30382;48.802;9.388;2022-11-20T01:13:08;11.40;;;8.13;;
44664;SDS011;30382;48.802;9.388;2022-11-20T01:16:13;9.17;;;8.20;;
44664;SDS011;30382;48.802;9.388;2022-11-20T01:18:58;10.57;;;8.40;;
44664;SDS011;30382;48.802;9.388;2022-11-20T01:21:43;11.77;;;8.33;;
44664;SDS011;30382;48.802;9.388;2022-11-20T01:24:28;13.10;;;9.50;;
44664;SDS011;30382;48.802;9.388;2022-11-20T01:27:12;13.03;;;9.80;;
44664;SDS011;30382;48.802;9.388;2022-11-20T01:29:58;13.10;;;9.30;;
44664;SDS011;30382;48.802;9.388;2022-11-20T01:32:42;11.60;;;8.47;;
44664;SDS011;30382;48.802;9.388;2022-11-20T01:35:26;12.00;;;8.87;;
44664;SDS011;30382;48.802;9.388;2022-11-20T01:38:11;12.37;;;8.20;;
44664;SDS011;30382;48.802;9.388;2022-11-20T01:40:55;10.33;;;8.10;;
44664;SDS011;30382;48.802;9.388;2022-11-20T01:43:39;12.27;;;8.93;;
44664;SDS011;30382;48.802;9.388;2022-11-20T01:46:24;15.97;;;9.43;;
44664;SDS011;30382;48.802;9.388;2022-11-20T01:49:19;11.53;;;7.87;;
44664;SDS011;30382;48.802;9.388;2022-11-20T01:52:05;10.30;;;8.03;;
44664;SDS011;30382;48.802;9.388;2022-11-20T01:54:58;9.57;;;7.60;;
44664;SDS011;30382;48.802;9.388;2022-11-20T01:57:44;10.00;;;7.83;;
44664;SDS011;30382;48.802;9.388;2022-11-20T02:00:29;9.80;;;7.77;;
44664;SDS011;30382;48.802;9.388;2022-11-20T02:03:15;8.90;;;7.90;;
44664;SDS011;30382;48.802;9.388;2022-11-20T02:06:19;8.87;;;7.20;;
44664;SDS011;30382;48.802;9.388;2022-11-20T02:09:06;10.63;;;7.30;;
44664;SDS011;30382;48.802;9.388;2022-11-20T02:11:51;8.40;;;6.80;;
44664;SDS011;30382;48.802;9.388;2022-11-20T02:14:35;7.17;;;6.43;;
44664;SDS011;30382;48.802;9.388;2022-11-20T02:17:20;6.93;;;6.00;;
44664;SDS011;30382;48.802;9.388;2022-11-20T02:20:04;7.37;;;5.80;;
44664;SDS011;30382;48.802;9.388;2022-11-20T02:23:01;4.90;;;3.43;;
44664;SDS011;30382;48.802;9.388;2022-11-20T02:25:47;7.27;;;4.80;;
44664;SDS011;30382;48.802;9.388;2022-11-20T02:28:31;5.80;;;3.70;;
44664;SDS011;30382;48.802;9.388;2022-11-20T02:31:16;7.60;;;5.67;;
44664;SDS011;30382;48.802;9.388;2022-11-20T02:34:00;6.97;;;4.40;;
44664;SDS011;30382;48.802;9.388;2022-11-20T02:36:44;4.87;;;4.33;;
44664;SDS011;30382;48.802;9.388;2022-11-20T02:39:30;4.07;;;3.20;;
44664;SDS011;30382;48.802;9.388;2022-11-20T02:42:15;4.13;;;3.40;;
44664;SDS011;30382;48.802;9.388;2022-11-20T02:44:59;3.90;;;3.33;;
44664;SDS011;30382;48.802;9.388;2022-11-20T02:47:43;2.30;;;2.10;;
44664;SDS011;30382;48.802;9.388;2022-11-20T02:50:28;4.67;;;2.13;;
44664;SDS011;30382;48.802;9.388;2022-11-20T02:53:12;4.10;;;2.40;;
44664;SDS011;30382;48.802;9.388;2022-11-20T02:55:56;1.93;;;1.83;;
44664;SDS011;30382;48.802;9.388;2022-11-20T02:58:41;2.43;;;2.23;;
44664;SDS011;30382;48.802;9.388;2022-11-20T03:01:25;2.30;;;2.10;;
44664;SDS011;30382;48.802;9.388;2022-11-20T03:04:09;3.60;;;2.33;;
44664;SDS011;30382;48.802;9.388;2022-11-20T03:06:54;2.93;;;2.73;;
44664;SDS011;30382;48.802;9.388;2022-11-20T03:09:38;2.80;;;2.50;;
44664;SDS011;30382;48.802;9.388;2022-11-20T03:12:23;2.47;;;2.37;;
44664;SDS011;30382;48.802;9.388;2022-11-20T03:15:07;3.30;;;3.00;;
44664;SDS011;30382;48.802;9.388;2022-11-20T03:17:55;3.30;;;2.27;;
44664;SDS011;30382;48.802;9.388;2022-11-20T03:20:39;3.23;;;2.93;;
44664;SDS011;30382;48.802;9.388;2022-11-20T03:23:24;2.30;;;2.10;;
44664;SDS011;30382;48.802;9.388;2022-11-20T03:28:53;2.87;;;2.67;;
44664;SDS011;30382;48.802;9.388;2022-11-20T03:31:38;5.40;;;2.70;;
44664;SDS011;30382;48.802;9.388;2022-11-20T03:34:26;3.53;;;2.67;;
44664;SDS011;30382;48.802;9.388;2022-11-20T03:37:11;2.97;;;2.77;;
44664;SDS011;30382;48.802;9.388;2022-11-20T03:39:55;2.67;;;2.40;;
44664;SDS011;30382;48.802;9.388;2022-11-20T03:42:39;3.37;;;2.60;;
44664;SDS011;30382;48.802;9.388;2022-11-20T03:45:30;3.53;;;2.70;;
44664;SDS011;30382;48.802;9.388;2022-11-20T03:48:14;4.00;;;2.43;;
44664;SDS011;30382;48.802;9.388;2022-11-20T03:51:08;3.23;;;2.67;;
44664;SDS011;30382;48.802;9.388;2022-11-20T03:53:54;2.97;;;2.67;;
44664;SDS011;30382;48.802;9.388;2022-11-20T03:56:39;3.23;;;2.83;;
44664;SDS011;30382;48.802;9.388;2022-11-20T03:59:23;3.10;;;2.80;;
44664;SDS011;30382;48.802;9.388;2022-11-20T04:02:07;2.70;;;2.40;;
44664;SDS011;30382;48.802;9.388;2022-11-20T04:04:52;4.03;;;2.43;;
44664;SDS011;30382;48.802;9.388;2022-11-20T04:07:36;3.50;;;2.97;;
44664;SDS011;30382;48.802;9.388;2022-11-20T04:10:21;2.30;;;2.10;;
44664;SDS011;30382;48.802;9.388;2022-11-20T04:13:05;5.73;;;3.33;;
44664;SDS011;30382;48.802;9.388;2022-11-20T04:15:49;4.13;;;3.10;;
44664;SDS011;30382;48.802;9.388;2022-11-20T04:18:35;2.30;;;2.10;;
44664;SDS011;30382;48.802;9.388;2022-11-20T04:21:19;3.20;;;2.90;;
44664;SDS011;30382;48.802;9.388;2022-11-20T04:24:04;4.07;;;2.53;;
44664;SDS011;30382;48.802;9.388;2022-11-20T04:26:49;4.30;;;3.00;;
44664;SDS011;30382;48.802;9.388;2022-11-20T04:29:33;3.13;;;2.70;;
44664;SDS011;30382;48.802;9.388;2022-11-20T04:32:17;6.33;;;2.83;;
44664;SDS011;30382;48.802;9.388;2022-11-20T04:35:02;4.13;;;2.20;;
44664;SDS011;30382;48.802;9.388;2022-11-20T04:37:46;3.90;;;2.73;;
44664;SDS011;30382;48.802;9.388;2022-11-20T04:40:30;2.83;;;2.50;;
44664;SDS011;30382;48.802;9.388;2022-11-20T04:43:15;3.60;;;2.30;;
44664;SDS011;30382;48.802;9.388;2022-11-20T04:45:59;2.40;;;2.17;;
44664;SDS011;30382;48.802;9.388;2022-11-20T04:48:44;3.63;;;2.73;;
44664;SDS011;30382;48.802;9.388;2022-11-20T04:51:29;3.50;;;2.60;;
44664;SDS011;30382;48.802;9.388;2022-11-20T04:54:13;3.00;;;2.70;;
44664;SDS011;30382;48.802;9.388;2022-11-20T04:56:57;2.40;;;2.10;;
44664;SDS011;30382;48.802;9.388;2022-11-20T04:59:42;4.37;;;2.97;;
44664;SDS011;30382;48.802;9.388;2022-11-20T05:02:26;2.87;;;2.60;;
44664;SDS011;30382;48.802;9.388;2022-11-20T05:05:10;5.67;;;3.23;;
44664;SDS011;30382;48.802;9.388;2022-11-20T05:07:55;2.33;;;2.10;;
44664;SDS011;30382;48.802;9.388;2022-11-20T05:10:40;3.37;;;2.50;;
44664;SDS011;30382;48.802;9.388;2022-11-20T05:13:24;2.83;;;2.07;;
44664;SDS011;30382;48.802;9.388;2022-11-20T05:16:13;3.40;;;2.00;;
44664;SDS011;30382;48.802;9.388;2022-11-20T05:18:57;2.57;;;2.40;;
44664;SDS011;30382;48.802;9.388;2022-11-20T05:21:42;2.90;;;2.70;;
44664;SDS011;30382;48.802;9.388;2022-11-20T05:24:26;3.07;;;2.87;;
44664;SDS011;30382;48.802;9.388;2022-11-20T05:27:10;2.70;;;2.37;;
44664;SDS011;30382;48.802;9.388;2022-11-20T05:29:55;2.33;;;2.13;;
44664;SDS011;30382;48.802;9.388;2022-11-20T05:32:39;6.70;;;2.97;;
44664;SDS011;30382;48.802;9.388;2022-11-20T05:35:23;3.03;;;2.83;;
44664;SDS011;30382;48.802;9.388;2022-11-20T05:38:08;2.53;;;2.33;;
44664;SDS011;30382;48.802;9.388;2022-11-20T05:40:52;2.77;;;2.57;;
44664;SDS011;30382;48.802;9.388;2022-11-20T05:43:37;2.67;;;2.47;;
44664;SDS011;30382;48.802;9.388;2022-11-20T05:46:22;3.00;;;2.80;;
44664;SDS011;30382;48.802;9.388;2022-11-20T05:49:06;2.90;;;2.70;;
44664;SDS011;30382;48.802;9.388;2022-11-20T05:51:50;2.50;;;2.30;;
44664;SDS011;30382;48.802;9.388;2022-11-20T05:54:35;5.97;;;2.50;;
44664;SDS011;30382;48.802;9.388;2022-11-20T05:57:19;2.60;;;2.40;;
44664;SDS011;30382;48.802;9.388;2022-11-20T06:00:04;2.57;;;2.37;;
44664;SDS011;30382;48.802;9.388;2022-11-20T06:02:48;2.50;;;2.30;;
44664;SDS011;30382;48.802;9.388;2022-11-20T06:05:33;2.87;;;2.63;;
44664;SDS011;30382;48.802;9.388;2022-11-20T06:08:17;2.53;;;2.27;;
44664;SDS011;30382;48.802;9.388;2022-11-20T06:11:05;3.77;;;2.70;;
44664;SDS011;30382;48.802;9.388;2022-11-20T06:13:50;2.77;;;2.53;;
44664;SDS011;30382;48.802;9.388;2022-11-20T06:16:34;2.47;;;2.20;;
44664;SDS011;30382;48.802;9.388;2022-11-20T06:19:19;2.40;;;2.13;;
44664;SDS011;30382;48.802;9.388;2022-11-20T06:22:03;1.77;;;1.67;;
44664;SDS011;30382;48.802;9.388;2022-11-20T06:24:47;3.40;;;2.10;;
44664;SDS011;30382;48.802;9.388;2022-11-20T06:27:31;2.90;;;2.07;;
44664;SDS011;30382;48.802;9.388;2022-11-20T06:30:16;1.97;;;1.83;;
44664;SDS011;30382;48.802;9.388;2022-11-20T06:33:00;2.40;;;2.20;;
44664;SDS011;30382;48.802;9.388;2022-11-20T06:35:44;2.00;;;1.77;;
44664;SDS011;30382;48.802;9.388;2022-11-20T06:38:29;2.57;;;2.37;;
44664;SDS011;30382;48.802;9.388;2022-11-20T06:41:14;2.20;;;2.10;;
44664;SDS011;30382;48.802;9.388;2022-11-20T06:43:59;2.60;;;2.37;;
44664;SDS011;30382;48.802;9.388;2022-11-20T06:46:43;3.20;;;2.03;;
44664;SDS011;30382;48.802;9.388;2022-11-20T06:49:27;2.03;;;1.93;;
44664;SDS011;30382;48.802;9.388;2022-11-20T06:52:12;2.33;;;1.97;;
44664;SDS011;30382;48.802;9.388;2022-11-20T06:54:56;3.27;;;1.90;;
44664;SDS011;30382;48.802;9.388;2022-11-20T06:57:40;4.13;;;1.90;;
44664;SDS011;30382;48.802;9.388;2022-11-20T07:00:24;3.13;;;1.60;;
44664;SDS011;30382;48.802;9.388;2022-11-20T07:03:09;2.90;;;2.00;;
44664;SDS011;30382;48.802;9.388;2022-11-20T07:05:54;2.00;;;1.90;;
44664;SDS011;30382;48.802;9.388;2022-11-20T07:08:39;3.33;;;2.00;;
44664;SDS011;30382;48.802;9.388;2022-11-20T07:11:23;1.57;;;1.43;;
44664;SDS011;30382;48.802;9.388;2022-11-20T07:14:07;2.27;;;1.80;;
44664;SDS011;30382;48.802;9.388;2022-11-20T07:16:52;1.93;;;1.83;;
44664;SDS011;30382;48.802;9.388;2022-11-20T07:19:36;2.07;;;1.93;;
44664;SDS011;30382;48.802;9.388;2022-11-20T07:22:20;2.10;;;1.83;;
44664;SDS011;30382;48.802;9.388;2022-11-20T07:25:06;1.83;;;1.63;;
44664;SDS011;30382;48.802;9.388;2022-11-20T07:27:50;2.50;;;2.30;;
44664;SDS011;30382;48.802;9.388;2022-11-20T07:30:34;1.80;;;1.70;;
44664;SDS011;30382;48.802;9.388;2022-11-20T07:33:19;2.87;;;2.57;;
44664;SDS011;30382;48.802;9.388;2022-11-20T07:36:03;2.60;;;2.20;;
44664;SDS011;30382;48.802;9.388;2022-11-20T07:38:48;2.27;;;2.00;;
44664;SDS011;30382;48.802;9.388;2022-11-20T07:41:32;3.53;;;2.80;;
44664;SDS011;30382;48.802;9.388;2022-11-20T07:44:16;1.97;;;1.83;;
44664;SDS011;30382;48.802;9.388;2022-11-20T07:47:01;3.53;;;1.90;;
44664;SDS011;30382;48.802;9.388;2022-11-20T07:49:45;2.73;;;1.73;;
44664;SDS011;30382;48.802;9.388;2022-11-20T07:52:29;2.57;;;1.90;;
44664;SDS011;30382;48.802;9.388;2022-11-20T07:55:14;2.27;;;2.13;;
44664;SDS011;30382;48.802;9.388;2022-11-20T07:57:58;4.83;;;2.90;;
44664;SDS011;30382;48.802;9.388;2022-11-20T08:00:43;2.23;;;2.07;;
44664;SDS011;30382;48.802;9.388;2022-11-20T08:03:27;2.57;;;2.30;;
44664;SDS011;30382;48.802;9.388;2022-11-20T08:06:11;2.10;;;1.90;;
44664;SDS011;30382;48.802;9.388;2022-11-20T08:08:56;3.10;;;1.90;;
44664;SDS011;30382;48.802;9.388;2022-11-20T08:11:40;2.37;;;2.17;;
44664;SDS011;30382;48.802;9.388;2022-11-20T08:14:43;2.00;;;1.90;;
44664;SDS011;30382;48.802;9.388;2022-11-20T08:17:28;2.87;;;2.57;;
44664;SDS011;30382;48.802;9.388;2022-11-20T08:20:12;2.07;;;1.90;;
44664;SDS011;30382;48.802;9.388;2022-11-20T08:22:57;2.03;;;1.60;;
44664;SDS011;30382;48.802;9.388;2022-11-20T08:25:41;2.70;;;2.00;;
44664;SDS011;30382;48.802;9.388;2022-11-20T08:28:26;3.10;;;2.20;;
44664;SDS011;30382;48.802;9.388;2022-11-20T08:31:10;3.33;;;1.90;;
44664;SDS011;30382;48.802;9.388;2022-11-20T08:33:54;1.77;;;1.67;;
44664;SDS011;30382;48.802;9.388;2022-11-20T08:36:39;3.60;;;1.93;;
44664;SDS011;30382;48.802;9.388;2022-11-20T08:39:23;1.93;;;1.73;;
44664;SDS011;30382;48.802;9.388;2022-11-20T08:42:07;2.63;;;1.60;;
44664;SDS011;30382;48.802;9.388;2022-11-20T08:44:52;2.20;;;1.40;;
44664;SDS011;30382;48.802;9.388;2022-11-20T08:47:36;2.30;;;2.10;;
44664;SDS011;30382;48.802;9.388;2022-11-20T08:50:20;2.23;;;2.00;;
44664;SDS011;30382;48.802;9.388;2022-11-20T08:53:05;1.90;;;1.80;;
44664;SDS011;30382;48.802;9.388;2022-11-20T08:55:49;1.77;;;1.67;;
44664;SDS011;30382;48.802;9.388;2022-11-20T08:58:34;5.30;;;2.23;;
44664;SDS011;30382;48.802;9.388;2022-11-20T09:01:19;2.00;;;1.90;;
44664;SDS011;30382;48.802;9.388;2022-11-20T09:04:04;2.13;;;1.97;;
44664;SDS011;30382;48.802;9.388;2022-11-20T09:06:48;3.40;;;2.00;;
44664;SDS011;30382;48.802;9.388;2022-11-20T09:09:35;2.43;;;1.80;;
44664;SDS011;30382;48.802;9.388;2022-11-20T09:12:19;3.40;;;2.33;;
44664;SDS011;30382;48.802;9.388;2022-11-20T09:15:03;1.93;;;1.47;;
44664;SDS011;30382;48.802;9.388;2022-11-20T09:17:55;2.10;;;1.60;;
44664;SDS011;30382;48.802;9.388;2022-11-20T09:20:39;1.80;;;1.47;;
44664;SDS011;30382;48.802;9.388;2022-11-20T09:23:23;2.00;;;1.80;;
44664;SDS011;30382;48.802;9.388;2022-11-20T09:26:09;1.53;;;1.43;;
44664;SDS011;30382;48.802;9.388;2022-11-20T09:28:54;4.00;;;1.80;;
44664;SDS011;30382;48.802;9.388;2022-11-20T09:31:40;1.60;;;1.50;;
44664;SDS011;30382;48.802;9.388;2022-11-20T09:34:24;1.77;;;1.60;;
44664;SDS011;30382;48.802;9.388;2022-11-20T09:37:08;1.20;;;1.10;;
44664;SDS011;30382;48.802;9.388;2022-11-20T09:39:52;1.60;;;1.23;;
44664;SDS011;30382;48.802;9.388;2022-11-20T09:42:41;1.40;;;1.30;;
44664;SDS011;30382;48.802;9.388;2022-11-20T09:45:37;1.40;;;1.30;;
44664;SDS011;30382;48.802;9.388;2022-11-20T09:48:39;1.37;;;1.00;;
44664;SDS011;30382;48.802;9.388;2022-11-20T09:51:41;1.30;;;1.20;;
44664;SDS011;30382;48.802;9.388;2022-11-20T09:54:31;1.17;;;1.10;;
44664;SDS011;30382;48.802;9.388;2022-11-20T09:57:18;1.33;;;1.23;;
44664;SDS011;30382;48.802;9.388;2022-11-20T10:00:05;1.37;;;1.03;;
44664;SDS011;30382;48.802;9.388;2022-11-20T10:03:13;1.73;;;0.90;;
44664;SDS011;30382;48.802;9.388;2022-11-20T10:05:58;2.10;;;0.97;;
44664;SDS011;30382;48.802;9.388;2022-11-20T10:08:58;0.80;;;0.80;;
44664;SDS011;30382;48.802;9.388;2022-11-20T10:17:54;0.60;;;0.60;;
44664;SDS011;30382;48.802;9.388;2022-11-20T10:20:55;1.10;;;0.90;;
44664;SDS011;30382;48.802;9.388;2022-11-20T10:24:47;0.70;;;0.60;;
44664;SDS011;30382;48.802;9.388;2022-11-20T10:27:00;1.27;;;0.60;;
44664;SDS011;30382;48.802;9.388;2022-11-20T10:29:46;2.17;;;0.73;;
44664;SDS011;30382;48.802;9.388;2022-11-20T10:32:34;0.60;;;0.60;;
44664;SDS011;30382;48.802;9.388;2022-11-20T10:35:24;0.93;;;0.70;;
44664;SDS011;30382;48.802;9.388;2022-11-20T10:38:13;1.13;;;0.80;;
44664;SDS011;30382;48.802;9.388;2022-11-20T10:41:01;7.60;;;3.97;;
44664;SDS011;30382;48.802;9.388;2022-11-20T10:44:05;3.80;;;2.50;;
44664;SDS011;30382;48.802;9.388;2022-11-20T10:46:53;1.03;;;0.93;;
44664;SDS011;30382;48.802;9.388;2022-11-20T10:49:38;1.30;;;1.10;;
44664;SDS011;30382;48.802;9.388;2022-11-20T10:55:28;1.00;;;0.97;;
44664;SDS011;30382;48.802;9.388;2022-11-20T10:58:34;1.07;;;0.97;;
44664;SDS011;30382;48.802;9.388;2022-11-20T11:01:21;1.50;;;0.63;;
44664;SDS011;30382;48.802;9.388;2022-11-20T11:04:18;1.50;;;0.70;;
44664;SDS011;30382;48.802;9.388;2022-11-20T11:07:09;0.83;;;0.73;;
44664;SDS011;30382;48.802;9.388;2022-11-20T11:09:55;0.70;;;0.70;;
44664;SDS011;30382;48.802;9.388;2022-11-20T11:12:42;2.37;;;2.00;;
44664;SDS011;30382;48.802;9.388;2022-11-20T11:18:11;2.93;;;0.83;;
44664;SDS011;30382;48.802;9.388;2022-11-20T11:20:56;0.70;;;0.70;;
44664;SDS011;30382;48.802;9.388;2022-11-20T11:23:41;0.80;;;0.73;;
44664;SDS011;30382;48.802;9.388;2022-11-20T11:26:26;1.03;;;0.93;;
44664;SDS011;30382;48.802;9.388;2022-11-20T11:29:15;0.83;;;0.83;;
44664;SDS011;30382;48.802;9.388;2022-11-20T11:32:05;1.20;;;0.90;;
44664;SDS011;30382;48.802;9.388;2022-11-20T11:35:00;1.50;;;1.40;;
44664;SDS011;30382;48.802;9.388;2022-11-20T11:37:45;0.80;;;0.80;;
44664;SDS011;30382;48.802;9.388;2022-11-20T11:40:31;1.10;;;1.00;;
44664;SDS011;30382;48.802;9.388;2022-11-20T11:43:18;0.70;;;0.70;;
44664;SDS011;30382;48.802;9.388;2022-11-20T11:46:27;1.00;;;0.90;;
44664;SDS011;30382;48.802;9.388;2022-11-20T11:49:17;2.00;;;0.80;;
44664;SDS011;30382;48.802;9.388;2022-11-20T11:54:53;0.93;;;0.93;;
44664;SDS011;30382;48.802;9.388;2022-11-20T11:57:43;1.87;;;1.03;;
44664;SDS011;30382;48.802;9.388;2022-11-20T12:00:29;1.20;;;1.10;;
44664;SDS011;30382;48.802;9.388;2022-11-20T12:03:19;0.97;;;0.97;;
44664;SDS011;30382;48.802;9.388;2022-11-20T12:06:10;1.67;;;1.50;;
44664;SDS011;30382;48.802;9.388;2022-11-20T12:09:05;1.40;;;1.30;;
44664;SDS011;30382;48.802;9.388;2022-11-20T12:11:54;3.13;;;1.00;;
44664;SDS011;30382;48.802;9.388;2022-11-20T12:14:43;2.03;;;1.30;;
44664;SDS011;30382;48.802;9.388;2022-11-20T12:17:29;1.27;;;1.10;;
44664;SDS011;30382;48.802;9.388;2022-11-20T12:20:13;1.70;;;1.37;;
44664;SDS011;30382;48.802;9.388;2022-11-20T12:25:52;1.10;;;0.90;;
44664;SDS011;30382;48.802;9.388;2022-11-20T12:28:48;3.40;;;1.70;;
44664;SDS011;30382;48.802;9.388;2022-11-20T12:37:29;1.80;;;1.70;;
44664;SDS011;30382;48.802;9.388;2022-11-20T12:43:20;1.53;;;1.30;;
44664;SDS011;30382;48.802;9.388;2022-11-20T12:46:46;1.70;;;1.30;;
44664;SDS011;30382;48.802;9.388;2022-11-20T12:49:38;2.03;;;1.00;;
44664;SDS011;30382;48.802;9.388;2022-11-20T12:52:33;1.40;;;1.30;;
44664;SDS011;30382;48.802;9.388;2022-11-20T12:55:34;2.17;;;1.50;;
44664;SDS011;30382;48.802;9.388;2022-11-20T12:58:27;3.20;;;1.63;;
44664;SDS011;30382;48.802;9.388;2022-11-20T13:01:24;1.03;;;0.93;;
44664;SDS011;30382;48.802;9.388;2022-11-20T13:04:39;2.57;;;2.37;;
44664;SDS011;30382;48.802;9.388;2022-11-20T13:07:28;3.63;;;2.20;;
44664;SDS011;30382;48.802;9.388;2022-11-20T13:10:18;1.70;;;1.60;;
44664;SDS011;30382;48.802;9.388;2022-11-20T13:13:13;1.30;;;1.27;;
44664;SDS011;30382;48.802;9.388;2022-11-20T13:16:16;1.20;;;1.20;;
44664;SDS011;30382;48.802;9.388;2022-11-20T13:19:04;1.13;;;1.03;;
44664;SDS011;30382;48.802;9.388;2022-11-20T13:21:50;1.47;;;0.83;;
44664;SDS011;30382;48.802;9.388;2022-11-20T13:24:34;5.53;;;1.67;;
44664;SDS011;30382;48.802;9.388;2022-11-20T13:27:20;1.20;;;0.90;;
44664;SDS011;30382;48.802;9.388;2022-11-20T13:30:16;0.77;;;0.77;;
44664;SDS011;30382;48.802;9.388;2022-11-20T13:35:53;5.53;;;0.80;;
44664;SDS011;30382;48.802;9.388;2022-11-20T13:38:47;1.47;;;1.30;;
44664;SDS011;30382;48.802;9.388;2022-11-20T13:41:33;1.10;;;1.00;;
44664;SDS011;30382;48.802;9.388;2022-11-20T13:44:31;2.23;;;0.80;;
44664;SDS011;30382;48.802;9.388;2022-11-20T13:47:21;2.20;;;1.60;;
44664;SDS011;30382;48.802;9.388;2022-11-20T13:50:08;0.67;;;0.67;;
44664;SDS011;30382;48.802;9.388;2022-11-20T13:55:42;1.33;;;0.83;;
44664;SDS011;30382;48.802;9.388;2022-11-20T14:04:05;1.00;;;0.60;;
44664;SDS011;30382;48.802;9.388;2022-11-20T14:06:50;0.93;;;0.70;;
44664;SDS011;30382;48.802;9.388;2022-11-20T14:09:35;0.60;;;0.60;;
44664;SDS011;30382;48.802;9.388;2022-11-20T14:12:20;2.87;;;0.90;;
44664;SDS011;30382;48.802;9.388;2022-11-20T14:15:05;4.63;;;0.90;;
44664;SDS011;30382;48.802;9.388;2022-11-20T14:17:49;1.33;;;0.97;;
44664;SDS011;30382;48.802;9.388;2022-11-20T14:20:34;0.63;;;0.50;;
44664;SDS011;30382;48.802;9.388;2022-11-20T14:23:25;4.40;;;1.00;;
44664;SDS011;30382;48.802;9.388;2022-11-20T14:26:12;1.13;;;0.93;;
44664;SDS011;30382;48.802;9.388;2022-11-20T14:28:57;1.23;;;1.13;;
44664;SDS011;30382;48.802;9.388;2022-11-20T14:31:42;1.53;;;0.60;;
44664;SDS011;30382;48.802;9.388;2022-11-20T14:34:30;1.20;;;0.87;;
44664;SDS011;30382;48.802;9.388;2022-11-20T14:37:23;1.10;;;1.00;;
44664;SDS011;30382;48.802;9.388;2022-11-20T14:43:26;4.00;;;1.87;;
44664;SDS011;30382;48.802;9.388;2022-11-20T14:46:11;0.80;;;0.80;;
44664;SDS011;30382;48.802;9.388;2022-11-20T14:48:56;4.03;;;1.30;;
44664;SDS011;30382;48.802;9.388;2022-11-20T14:51:41;1.53;;;1.43;;
44664;SDS011;30382;48.802;9.388;2022-11-20T14:54:26;3.00;;;1.93;;
44664;SDS011;30382;48.802;9.388;2022-11-20T14:57:19;2.13;;;1.40;;
44664;SDS011;30382;48.802;9.388;2022-11-20T15:02:54;3.23;;;1.93;;
44664;SDS011;30382;48.802;9.388;2022-11-20T15:05:47;1.50;;;1.20;;
44664;SDS011;30382;48.802;9.388;2022-11-20T15:08:31;3.20;;;1.20;;
44664;SDS011;30382;48.802;9.388;2022-11-20T15:11:19;2.53;;;2.00;;
44664;SDS011;30382;48.802;9.388;2022-11-20T15:14:05;2.50;;;2.30;;
44664;SDS011;30382;48.802;9.388;2022-11-20T15:16:50;4.87;;;3.30;;
44664;SDS011;30382;48.802;9.388;2022-11-20T15:19:36;2.30;;;2.10;;
44664;SDS011;30382;48.802;9.388;2022-11-20T15:22:20;1.30;;;1.20;;
44664;SDS011;30382;48.802;9.388;2022-11-20T15:25:11;1.73;;;1.03;;
44664;SDS011;30382;48.802;9.388;2022-11-20T15:27:56;1.90;;;1.40;;
44664;SDS011;30382;48.802;9.388;2022-11-20T15:30:40;3.60;;;1.23;;
44664;SDS011;30382;48.802;9.388;2022-11-20T15:33:25;2.40;;;1.10;;
44664;SDS011;30382;48.802;9.388;2022-11-20T15:36:09;0.80;;;0.80;;
44664;SDS011;30382;48.802;9.388;2022-11-20T15:38:53;4.93;;;1.20;;
44664;SDS011;30382;48.802;9.388;2022-11-20T15:41:38;2.10;;;1.10;;
44664;SDS011;30382;48.802;9.388;2022-11-20T15:44:22;1.37;;;1.27;;
44664;SDS011;30382;48.802;9.388;2022-11-20T15:47:07;5.13;;;1.30;;
44664;SDS011;30382;48.802;9.388;2022-11-20T15:49:51;2.40;;;1.10;;
44664;SDS011;30382;48.802;9.388;2022-11-20T15:52:35;5.00;;;1.93;;
44664;SDS011;30382;48.802;9.388;2022-11-20T15:55:20;4.40;;;2.30;;
44664;SDS011;30382;48.802;9.388;2022-11-20T15:58:04;1.17;;;1.07;;
44664;SDS011;30382;48.802;9.388;2022-11-20T16:00:48;4.60;;;2.20;;
44664;SDS011;30382;48.802;9.388;2022-11-20T16:03:32;1.23;;;1.10;;
44664;SDS011;30382;48.802;9.388;2022-11-20T16:06:17;1.33;;;0.90;;
44664;SDS011;30382;48.802;9.388;2022-11-20T16:09:02;1.03;;;1.03;;
44664;SDS011;30382;48.802;9.388;2022-11-20T16:11:46;1.43;;;1.30;;
44664;SDS011;30382;48.802;9.388;2022-11-20T16:14:31;2.03;;;1.53;;
44664;SDS011;30382;48.802;9.388;2022-11-20T16:17:34;1.47;;;1.37;;
44664;SDS011;30382;48.802;9.388;2022-11-20T16:20:26;1.00;;;1.00;;
44664;SDS011;30382;48.802;9.388;2022-11-20T16:23:10;2.10;;;1.80;;
44664;SDS011;30382;48.802;9.388;2022-11-20T16:25:55;0.90;;;0.87;;
44664;SDS011;30382;48.802;9.388;2022-11-20T16:28:39;1.33;;;1.23;;
44664;SDS011;30382;48.802;9.388;2022-11-20T16:31:24;3.00;;;1.80;;
44664;SDS011;30382;48.802;9.388;2022-11-20T16:34:08;1.50;;;1.40;;
44664;SDS011;30382;48.802;9.388;2022-11-20T16:36:52;1.53;;;1.43;;
44664;SDS011;30382;48.802;9.388;2022-11-20T16:39:37;1.93;;;1.63;;
44664;SDS011;30382;48.802;9.388;2022-11-20T16:42:21;1.40;;;1.30;;
44664;SDS011;30382;48.802;9.388;2022-11-20T16:45:05;4.17;;;2.70;;
44664;SDS011;30382;48.802;9.388;2022-11-20T16:47:50;1.70;;;1.60;;
44664;SDS011;30382;48.802;9.388;2022-11-20T16:50:34;5.33;;;2.57;;
44664;SDS011;30382;48.802;9.388;2022-11-20T16:53:19;3.80;;;2.67;;
44664;SDS011;30382;48.802;9.388;2022-11-20T16:56:14;3.63;;;2.63;;
44664;SDS011;30382;48.802;9.388;2022-11-20T16:59:02;2.33;;;1.40;;
44664;SDS011;30382;48.802;9.388;2022-11-20T17:01:46;1.77;;;1.67;;
44664;SDS011;30382;48.802;9.388;2022-11-20T17:04:31;4.43;;;2.60;;
44664;SDS011;30382;48.802;9.388;2022-11-20T17:07:15;3.73;;;2.50;;
44664;SDS011;30382;48.802;9.388;2022-11-20T17:09:59;5.03;;;4.20;;
44664;SDS011;30382;48.802;9.388;2022-11-20T17:12:44;4.77;;;3.60;;
44664;SDS011;30382;48.802;9.388;2022-11-20T17:15:28;1.70;;;1.60;;
44664;SDS011;30382;48.802;9.388;2022-11-20T17:18:12;9.77;;;7.50;;
44664;SDS011;30382;48.802;9.388;2022-11-20T17:20:57;5.93;;;5.10;;
44664;SDS011;30382;48.802;9.388;2022-11-20T17:23:43;8.70;;;4.50;;
44664;SDS011;30382;48.802;9.388;2022-11-20T17:26:28;6.60;;;4.83;;
44664;SDS011;30382;48.802;9.388;2022-11-20T17:29:13;2.40;;;2.20;;